Aérodrome :
LOGIN :

S'inscrire | Disclaimer

   EN    FR    IT 

 










Légende :    VFR   VFR Marginal   IFR   IFR Intensif   IFR Très Intensif
Visi : 
Plafond : 
>= 8 km
>= 3000ft
5 à 8 km
1000 à 3000 ft
1500m à 5 km
500 à 1000 ft
800 à 1500m
200 à 500 ft
< 800m
< 200 ft
Symboles :   Orages  Brouillard  Fortes neiges  Fortes précipitations  Vent > 20 kt
SIGMETs :   Divers  Orages  Givrage  Turbulence  Onde Orograph.  Cendres Volcan.







- Altitude de l'aérodrome : 364 ft
- Code IATA : FRA


EDDF - Frankfurt Int.

DERNIER METAR :
  • 241220Z 21014KT 9999 FEW030 BKN040 14/08 Q1010 NOSIG

METARs EXPIRÉS :
  • 241150Z 21013KT 9999 FEW030 BKN040 14/09 Q1010 NOSIG
  • 241120Z 20014KT 9999 FEW030 BKN070 BKN200 14/09 Q1010 NOSIG
  • 241050Z 20013KT 9999 FEW030 BKN045 BKN200 14/08 Q1010 NOSIG
  • 241020Z 21011KT 9999 FEW030 SCT040 BKN250 13/08 Q1010 NOSIG
  • 240950Z 19011KT 170V230 9999 FEW030 BKN250 12/08 Q1010 NOSIG

TAF TAF EDDF
Valide du 24 à 12h jusqu'au 25 à 18h UTC


241100Z 2412/2518 20012KT 9999 BKN040
BECMG 2415/2417 23005KT
PROB40
TEMPO 2415/2421 RA
BECMG 2422/2424 VRB03KT
TEMPO 2500/2513 4000 RA BKN010
BECMG 2509/2511 28007KT
PROB30
TEMPO 2513/2518 SHRASN BKN020TCU
Pas de NOTAMs connus pour ce terrain.



MET'MAP, la Météo Aéronautique d'un coup d'oeil ! - Copyright ORBIFLY Décembre 2007 - Disclaimer

ORBIFLY MET'MAP TEAM :

Programmation & Développement : Alexandra Zaïnal
Conception & Développement : Baudouin d'Aumeries
Co-Programmation & Développement : Marc-Olivier Méhu
Soutien technique & logistique : Manuel Goepfert

Contact : metmap@orbifly.com




SOURCES & CREDITS :

   NOAA